createdAt,value
2018-10-12T00:00:04.927Z,98183.33
2018-10-12T00:00:36.520Z,98186.73
2018-10-12T00:01:08.116Z,98189.30
2018-10-12T00:01:39.712Z,98186.30
2018-10-12T00:02:11.315Z,98183.76
2018-10-12T00:02:42.909Z,98183.33
2018-10-12T00:03:14.487Z,98191.02
2018-10-12T00:03:46.074Z,98185.03
2018-10-12T00:04:17.692Z,98191.02
2018-10-12T00:04:49.299Z,98185.89
2018-10-12T00:05:20.909Z,98188.88
2018-10-12T00:05:52.518Z,98188.89
2018-10-12T00:06:24.114Z,98181.67
2018-10-12T00:06:55.723Z,98185.91
2018-10-12T00:07:27.312Z,98185.05
2018-10-12T00:07:58.924Z,98188.08
2018-10-12T00:08:30.531Z,98185.05
2018-10-12T00:09:02.130Z,98180.83
2018-10-12T00:09:33.759Z,98186.37
2018-10-12T00:10:05.343Z,98188.08
2018-10-12T00:10:36.947Z,98182.95
2018-10-12T00:11:08.554Z,98185.95
2018-10-12T00:11:40.158Z,98187.66
2018-10-12T00:12:11.762Z,98187.23
2018-10-12T00:12:43.357Z,98145.22
2018-10-12T00:13:14.949Z,98186.37
2018-10-12T00:13:46.534Z,98191.92
2018-10-12T00:14:18.171Z,98197.47
2018-10-12T00:14:49.780Z,98185.09
2018-10-12T00:15:21.387Z,98188.50
2018-10-12T00:15:52.981Z,98186.38
2018-10-12T00:16:24.586Z,98191.48
2018-10-12T00:16:56.184Z,98186.80
2018-10-12T00:17:27.785Z,98192.78
2018-10-12T00:17:59.375Z,98191.08
2018-10-12T00:18:30.979Z,98193.20
2018-10-12T00:19:02.581Z,98185.59
2018-10-12T00:19:34.195Z,98195.35
2018-10-12T00:20:05.785Z,98199.19
2018-10-12T00:20:37.386Z,98197.91
2018-10-12T00:21:08.972Z,98193.70
2018-10-12T00:21:40.565Z,98195.83
2018-10-12T00:22:12.152Z,98204.73
2018-10-12T00:22:43.759Z,98201.75
2018-10-12T00:23:15.352Z,98208.16
2018-10-12T00:23:46.948Z,98208.58
2018-10-12T00:24:18.559Z,98206.87
2018-10-12T00:24:50.148Z,98204.31
2018-10-12T00:25:21.755Z,98201.39
2018-10-12T00:25:53.355Z,98204.75
2018-10-12T00:26:24.944Z,98204.75
2018-10-12T00:26:56.546Z,98204.75
2018-10-12T00:27:28.154Z,98206.02
2018-10-12T00:27:59.749Z,98208.58
2018-10-12T00:28:31.348Z,98203.04
2018-10-12T00:29:02.940Z,98209.05
2018-10-12T00:29:34.556Z,98207.77
2018-10-12T00:30:06.149Z,98205.66
2018-10-12T00:30:37.758Z,98207.77
2018-10-12T00:31:09.352Z,98205.64
2018-10-12T00:31:40.937Z,98212.89
2018-10-12T00:32:12.529Z,98208.63
2018-10-12T00:32:44.131Z,98213.33
2018-10-12T00:33:15.739Z,98206.92
2018-10-12T00:33:47.346Z,98225.27
2018-10-12T00:34:18.978Z,98206.09
2018-10-12T00:34:50.585Z,98185.89
2018-10-12T00:35:22.196Z,98211.13
2018-10-12T00:35:53.803Z,98211.93
2018-10-12T00:36:25.382Z,98212.35
2018-10-12T00:36:56.973Z,98210.22
2018-10-12T00:37:28.581Z,98213.19
2018-10-12T00:38:00.187Z,98210.20
2018-10-12T00:38:31.771Z,98209.34
2018-10-12T00:39:03.368Z,98211.85
2018-10-12T00:39:34.974Z,98208.87
2018-10-12T00:40:06.564Z,98211.89
2018-10-12T00:40:38.142Z,98208.05
2018-10-12T00:41:09.747Z,98211.43
2018-10-12T00:41:41.348Z,98208.45
2018-10-12T00:42:12.940Z,98209.30
2018-10-12T00:42:44.539Z,98211.00
2018-10-12T00:43:16.124Z,98214.84
2018-10-12T00:43:47.716Z,98210.58
2018-10-12T00:44:19.355Z,98219.53
2018-10-12T00:44:50.995Z,98221.67
2018-10-12T00:45:22.574Z,98217.87
2018-10-12T00:45:54.160Z,98221.25
2018-10-12T00:46:25.765Z,98214.45
2018-10-12T00:46:57.346Z,98222.14
2018-10-12T00:47:28.922Z,98219.53
2018-10-12T00:48:00.507Z,98217.02
2018-10-12T00:48:32.104Z,98213.20
2018-10-12T00:49:03.683Z,98218.30
2018-10-12T00:49:35.337Z,98215.73
2018-10-12T00:50:06.899Z,98218.73
2018-10-12T00:50:38.506Z,98213.56
2018-10-12T00:51:10.096Z,98216.59
2018-10-12T00:51:41.696Z,98215.73
2018-10-12T00:52:13.289Z,98225.09
2018-10-12T00:52:44.895Z,98210.63
2018-10-12T00:53:16.490Z,98217.03
2018-10-12T00:53:48.089Z,98211.05
2018-10-12T00:54:19.669Z,98214.05
2018-10-12T00:54:51.289Z,98208.06
2018-10-12T00:55:22.867Z,98213.19
2018-10-12T00:55:54.464Z,98207.64
2018-10-12T00:56:26.067Z,98208.91
2018-10-12T00:56:57.675Z,98212.77
2018-10-12T00:57:29.268Z,98211.05
2018-10-12T00:58:00.878Z,98214.05
2018-10-12T00:58:32.485Z,98211.91
2018-10-12T00:59:04.077Z,98211.78
2018-10-12T00:59:35.687Z,98215.20
2018-10-12T01:00:07.266Z,98208.45
2018-10-12T01:00:38.862Z,98215.76
2018-10-12T01:01:10.471Z,98216.69
2018-10-12T01:01:42.075Z,98214.19
2018-10-12T01:02:13.672Z,98220.29
2018-10-12T01:02:45.268Z,98215.19
2018-10-12T01:03:16.885Z,98216.89
2018-10-12T01:03:48.480Z,98215.23
2018-10-12T01:04:20.068Z,98225.05
2018-10-12T01:04:51.688Z,98215.66
2018-10-12T01:05:23.267Z,98217.37
2018-10-12T01:05:54.882Z,98219.92
2018-10-12T01:06:26.538Z,98217.75
2018-10-12T01:06:58.120Z,98213.52
2018-10-12T01:07:29.707Z,98214.75
2018-10-12T01:08:01.304Z,98222.00
2018-10-12T01:08:32.907Z,98219.45
2018-10-12T01:09:04.514Z,98219.81
2018-10-12T01:09:36.141Z,98218.50
2018-10-12T01:10:07.740Z,98220.59
2018-10-12T01:10:39.334Z,98209.08
2018-10-12T01:11:10.928Z,98215.46
2018-10-12T01:11:42.524Z,98216.31
2018-10-12T01:12:14.181Z,98216.31
2018-10-12T01:12:45.740Z,98214.17
2018-10-12T01:13:17.329Z,98219.68
2018-10-12T01:13:48.916Z,98219.68
2018-10-12T01:14:20.527Z,98220.11
2018-10-12T01:14:52.148Z,98208.16
2018-10-12T01:15:23.742Z,98210.33
2018-10-12T01:15:55.334Z,98210.77
2018-10-12T01:16:26.928Z,98212.89
2018-10-12T01:16:58.507Z,98207.78
2018-10-12T01:17:30.109Z,98203.94
2018-10-12T01:18:01.715Z,98217.59
2018-10-12T01:18:33.309Z,98213.75
2018-10-12T01:19:04.915Z,98212.05
2018-10-12T01:19:36.523Z,98218.02
2018-10-12T01:20:08.127Z,98220.59
2018-10-12T01:20:39.724Z,98212.91
2018-10-12T01:21:11.302Z,98212.53
2018-10-12T01:21:42.892Z,98224.44
2018-10-12T01:22:14.484Z,98209.92
2018-10-12T01:22:46.078Z,98216.33
2018-10-12T01:23:17.699Z,98213.77
2018-10-12T01:23:49.301Z,98212.48
2018-10-12T01:24:20.887Z,98206.94
2018-10-12T01:24:52.518Z,98208.22
2018-10-12T01:25:24.126Z,98205.70
2018-10-12T01:25:55.731Z,98212.96
2018-10-12T01:26:27.331Z,98214.20
2018-10-12T01:26:58.907Z,98200.16
2018-10-12T01:27:30.538Z,98210.84
2018-10-12T01:28:02.118Z,98211.26
2018-10-12T01:28:33.709Z,98208.70
2018-10-12T01:29:05.300Z,98208.28
2018-10-12T01:29:36.902Z,98210.84
2018-10-12T01:30:08.496Z,98201.03
2018-10-12T01:30:40.098Z,98205.30
2018-10-12T01:31:11.693Z,98209.55
2018-10-12T01:31:43.293Z,98206.99
2018-10-12T01:32:14.871Z,98204.02
2018-10-12T01:32:46.461Z,98207.86
2018-10-12T01:33:18.048Z,98199.76
2018-10-12T01:33:49.641Z,98201.04
2018-10-12T01:34:21.233Z,98204.88
2018-10-12T01:34:52.853Z,98199.38
2018-10-12T01:35:24.465Z,98192.13
2018-10-12T01:35:56.079Z,98198.95
2018-10-12T01:36:27.672Z,98192.55
2018-10-12T01:36:59.255Z,98191.66
2018-10-12T01:37:30.848Z,98191.64
2018-10-12T01:38:02.441Z,98199.76
2018-10-12T01:38:34.050Z,98188.66
2018-10-12T01:39:05.648Z,98186.95
2018-10-12T01:39:37.240Z,98193.35
2018-10-12T01:40:08.828Z,98181.03
2018-10-12T01:40:40.430Z,98186.54
2018-10-12T01:41:12.039Z,98176.77
2018-10-12T01:41:43.647Z,98192.98
2018-10-12T01:42:15.254Z,98176.77
2018-10-12T01:42:46.852Z,98187.86
2018-10-12T01:43:18.445Z,98186.59
2018-10-12T01:43:50.027Z,98177.64
2018-10-12T01:44:21.628Z,98176.41
2018-10-12T01:44:53.220Z,98180.25
2018-10-12T01:45:24.821Z,98183.23
2018-10-12T01:45:56.426Z,98173.44
2018-10-12T01:46:28.016Z,98184.53
2018-10-12T01:46:59.595Z,98178.56
2018-10-12T01:47:31.202Z,98171.31
2018-10-12T01:48:02.789Z,98181.98
2018-10-12T01:48:34.384Z,98176.05
2018-10-12T01:49:05.976Z,98173.50
2018-10-12T01:49:37.582Z,98182.45
2018-10-12T01:50:09.205Z,98182.03
2018-10-12T01:50:40.811Z,98177.77
2018-10-12T01:51:12.419Z,98177.78
2018-10-12T01:51:44.046Z,98176.08
2018-10-12T01:52:15.655Z,98172.66
2018-10-12T01:52:47.258Z,98172.66
2018-10-12T01:53:18.864Z,98183.33
2018-10-12T01:53:50.456Z,98174.38
2018-10-12T01:54:22.063Z,98174.84
2018-10-12T01:54:53.684Z,98169.30
2018-10-12T01:55:25.301Z,98174.84
2018-10-12T01:55:56.897Z,98182.52
2018-10-12T01:56:28.492Z,98175.70
2018-10-12T01:57:00.098Z,98177.83
2018-10-12T01:57:31.683Z,98179.97
2018-10-12T01:58:03.267Z,98173.99
2018-10-12T01:58:34.874Z,98173.57
2018-10-12T01:59:06.470Z,98175.70
2018-10-12T01:59:38.075Z,98176.12
2018-10-12T02:00:09.686Z,98175.76
2018-10-12T02:00:41.281Z,98173.59
2018-10-12T02:01:12.872Z,98170.59
2018-10-12T02:01:44.451Z,98170.59
2018-10-12T02:02:16.059Z,98165.48
2018-10-12T02:02:47.657Z,98171.86
2018-10-12T02:03:19.253Z,98165.05
2018-10-12T02:03:50.855Z,98174.00
2018-10-12T02:04:22.451Z,98176.98
2018-10-12T02:04:54.036Z,98165.91
2018-10-12T02:05:25.652Z,98163.32
2018-10-12T02:05:57.310Z,98187.21
2018-10-12T02:06:28.905Z,98178.21
2018-10-12T02:07:43.085Z,98178.63
2018-10-12T02:08:14.700Z,98186.73
2018-10-12T02:08:46.302Z,98179.03
2018-10-12T02:09:17.920Z,98179.48
2018-10-12T02:09:49.587Z,98185.81
2018-10-12T02:10:21.183Z,98173.42
2018-10-12T02:10:52.771Z,98179.36
2018-10-12T02:11:24.368Z,98177.63
2018-10-12T02:11:55.960Z,98178.05
2018-10-12T02:12:27.558Z,98172.88
2018-10-12T02:12:59.171Z,98168.23
2018-10-12T02:13:30.777Z,98168.17
2018-10-12T02:14:02.392Z,98177.55
2018-10-12T02:14:33.984Z,98185.61
2018-10-12T02:15:05.637Z,98174.08
2018-10-12T02:15:37.247Z,98167.20
2018-10-12T02:16:08.844Z,98172.30
2018-10-12T02:16:40.437Z,98179.50
2018-10-12T02:17:12.020Z,98171.80
2018-10-12T02:17:43.612Z,98175.16
2018-10-12T02:18:15.231Z,98175.09
2018-10-12T02:18:53.174Z,98174.21
2018-10-12T02:19:24.753Z,98177.50
2018-10-12T02:19:56.352Z,98174.02
2018-10-12T02:21:10.716Z,98181.66
2018-10-12T02:21:42.308Z,98182.48
2018-10-12T02:22:13.887Z,98183.66
2018-10-12T02:22:45.476Z,98182.78
2018-10-12T02:23:17.069Z,98184.44
2018-10-12T02:23:48.660Z,98180.16
2018-10-12T02:24:20.252Z,98180.95
2018-10-12T02:24:51.850Z,98181.80
2018-10-12T02:25:23.522Z,98185.22
2018-10-12T02:25:55.114Z,98186.48
2018-10-12T02:26:26.694Z,98185.20
2018-10-12T02:26:58.270Z,98184.34
2018-10-12T02:27:29.860Z,98185.20
2018-10-12T02:28:01.472Z,98183.06
2018-10-12T02:28:33.068Z,98177.08
2018-10-12T02:29:04.674Z,98177.52
2018-10-12T02:29:36.272Z,98183.42
2018-10-12T02:30:07.863Z,98183.84
2018-10-12T02:30:39.503Z,98175.25
2018-10-12T02:31:11.103Z,98179.08
2018-10-12T02:31:42.699Z,98176.47
2018-10-12T02:32:14.296Z,98175.19
2018-10-12T02:32:45.894Z,98182.05
2018-10-12T02:33:17.484Z,98173.53
2018-10-12T02:33:49.095Z,98178.23
2018-10-12T02:34:20.703Z,98181.28
2018-10-12T02:34:52.305Z,98178.31
2018-10-12T02:35:23.935Z,98176.23
2018-10-12T02:35:55.555Z,98146.85
2018-10-12T02:36:27.433Z,98186.91
2018-10-12T02:36:59.039Z,98186.05
2018-10-12T02:37:30.632Z,98193.30
2018-10-12T02:38:02.211Z,98191.17
2018-10-12T02:38:33.870Z,98181.38
2018-10-12T02:39:05.469Z,98192.05
2018-10-12T02:39:37.071Z,98189.55
2018-10-12T02:40:08.664Z,98196.38
2018-10-12T02:40:40.296Z,98195.88
2018-10-12T02:41:11.896Z,98194.47
2018-10-12T02:41:43.484Z,98204.98
2018-10-12T02:42:15.077Z,98204.89
2018-10-12T02:42:46.673Z,98201.70
2018-10-12T02:43:18.265Z,98203.67
2018-10-12T02:43:49.855Z,98199.78
2018-10-12T02:44:21.458Z,98196.42
2018-10-12T02:44:53.053Z,98205.52
2018-10-12T02:45:24.676Z,98205.20
2018-10-12T02:45:56.282Z,98205.33
2018-10-12T02:46:27.875Z,98211.01
2018-10-12T02:46:59.468Z,98216.28
2018-10-12T02:47:31.074Z,98207.41
2018-10-12T02:48:02.683Z,98202.79
2018-10-12T02:48:34.267Z,98204.15
2018-10-12T02:49:05.860Z,98211.05
2018-10-12T02:49:37.463Z,98205.20
2018-10-12T02:50:09.071Z,98214.19
2018-10-12T02:50:40.698Z,98212.91
2018-10-12T02:51:12.288Z,98212.00
2018-10-12T02:51:43.899Z,98219.69
2018-10-12T02:52:15.512Z,98219.23
2018-10-12T02:52:47.113Z,98221.76
2018-10-12T02:53:18.694Z,98221.70
2018-10-12T02:53:50.289Z,98221.20
2018-10-12T02:54:21.895Z,98224.19
2018-10-12T02:54:53.484Z,98226.02
2018-10-12T02:55:25.092Z,98230.80
2018-10-12T02:55:56.716Z,98232.13
2018-10-12T02:56:28.319Z,98229.20
2018-10-12T02:56:59.912Z,98230.18
2018-10-12T02:57:31.519Z,98236.58
2018-10-12T02:58:03.119Z,98232.77
2018-10-12T02:58:34.717Z,98237.94
2018-10-12T02:59:06.322Z,98232.40
2018-10-12T02:59:37.931Z,98233.69
2018-10-12T03:00:09.525Z,98234.16
2018-10-12T03:00:41.120Z,98243.97
2018-10-12T03:01:12.727Z,98240.15
2018-10-12T03:01:44.339Z,98238.88
2018-10-12T03:02:15.932Z,98236.72
2018-10-12T03:02:47.524Z,98242.36
2018-10-12T03:03:19.121Z,98239.86
2018-10-12T03:03:50.759Z,98241.67
2018-10-12T03:04:22.367Z,98245.04
2018-10-12T03:04:53.974Z,98253.19
2018-10-12T03:05:25.628Z,98254.91
2018-10-12T03:05:57.241Z,98250.66
2018-10-12T03:06:28.952Z,98256.20
2018-10-12T03:07:00.560Z,98254.50
2018-10-12T03:07:32.167Z,98265.20
2018-10-12T03:08:03.763Z,98259.66
2018-10-12T03:08:35.352Z,98262.22
2018-10-12T03:09:06.953Z,98270.76
2018-10-12T03:09:38.558Z,98261.80
2018-10-12T03:10:12.013Z,98260.10
2018-10-12T03:10:43.621Z,98234.11
2018-10-12T03:11:15.244Z,98263.57
2018-10-12T03:11:46.857Z,98265.70
2018-10-12T03:12:18.457Z,98272.11
2018-10-12T03:12:50.045Z,98272.95
2018-10-12T03:13:21.663Z,98271.73
2018-10-12T03:13:53.256Z,98269.56
2018-10-12T03:14:24.834Z,98270.03
2018-10-12T03:14:56.419Z,98275.15
2018-10-12T03:15:28.022Z,98272.59
2018-10-12T03:15:59.655Z,98276.01
2018-10-12T03:16:31.275Z,98279.42
2018-10-12T03:17:02.888Z,98274.38
2018-10-12T03:17:34.485Z,98267.53
2018-10-12T03:18:06.080Z,98274.79
2018-10-12T03:18:37.687Z,98276.50
2018-10-12T03:19:09.284Z,98276.94
2018-10-12T03:19:40.863Z,98281.62
2018-10-12T03:20:12.470Z,98278.25
2018-10-12T03:20:44.060Z,98286.78
2018-10-12T03:21:15.684Z,98275.70
2018-10-12T03:21:47.299Z,98277.84
2018-10-12T03:22:18.887Z,98278.27
2018-10-12T03:22:50.495Z,98272.80
2018-10-12T03:23:22.097Z,98286.43
2018-10-12T03:23:53.683Z,98277.89
2018-10-12T03:24:25.276Z,98273.22
2018-10-12T03:24:56.877Z,98278.34
2018-10-12T03:25:28.472Z,98280.05
2018-10-12T03:26:00.079Z,98276.25
2018-10-12T03:26:31.692Z,98286.92
2018-10-12T03:27:03.298Z,98279.24
2018-10-12T03:27:34.907Z,98282.23
2018-10-12T03:28:06.521Z,98278.41
2018-10-12T03:28:38.130Z,98272.05
2018-10-12T03:29:09.732Z,98282.28
2018-10-12T03:29:41.334Z,98285.27
2018-10-12T03:30:12.943Z,98281.02
2018-10-12T03:30:44.544Z,98281.88
2018-10-12T03:31:16.164Z,98284.44
2018-10-12T03:31:47.768Z,98276.80
2018-10-12T03:32:19.369Z,98277.23
2018-10-12T03:32:50.968Z,98283.20
2018-10-12T03:33:22.553Z,98284.06
2018-10-12T03:33:54.149Z,98289.61
2018-10-12T03:34:25.748Z,98285.34
2018-10-12T03:34:57.334Z,98284.91
2018-10-12T03:35:28.928Z,98281.55
2018-10-12T03:36:00.553Z,98283.70
2018-10-12T03:36:32.144Z,98286.66
2018-10-12T03:37:03.760Z,98294.73
2018-10-12T03:37:35.372Z,98290.08
2018-10-12T03:38:06.956Z,98288.80
2018-10-12T03:38:38.561Z,98285.81
2018-10-12T03:39:10.153Z,98290.50
2018-10-12T03:39:41.755Z,98291.78
2018-10-12T03:40:13.353Z,98289.66
2018-10-12T03:40:44.958Z,98287.52
2018-10-12T03:41:16.580Z,98287.52
2018-10-12T03:41:48.181Z,98291.36
2018-10-12T03:42:19.773Z,98294.34
2018-10-12T03:42:51.367Z,98293.06
2018-10-12T03:43:22.951Z,98287.95
2018-10-12T03:43:54.544Z,98290.09
2018-10-12T03:44:26.146Z,98288.38
2018-10-12T03:44:57.753Z,98290.08
2018-10-12T03:45:29.349Z,98289.23
2018-10-12T03:46:00.970Z,98283.26
2018-10-12T03:46:32.569Z,98284.50
2018-10-12T03:47:04.169Z,98285.78
2018-10-12T03:47:35.754Z,98293.06
2018-10-12T03:48:07.359Z,98292.59
2018-10-12T03:48:38.960Z,98292.59
2018-10-12T03:49:10.552Z,98296.48
2018-10-12T03:49:42.141Z,98292.59
2018-10-12T03:50:13.732Z,98296.44
2018-10-12T03:50:45.324Z,98299.85
2018-10-12T03:51:16.925Z,98296.92
2018-10-12T03:51:48.555Z,98298.20
2018-10-12T03:52:20.158Z,98297.30
2018-10-12T03:52:51.758Z,98291.78
2018-10-12T03:53:23.352Z,98300.31
2018-10-12T03:53:54.944Z,98299.85
2018-10-12T03:54:26.554Z,98293.06
2018-10-12T03:54:58.160Z,98296.49
2018-10-12T03:55:29.762Z,98301.59
2018-10-12T03:56:01.396Z,98304.16
2018-10-12T03:56:32.989Z,98302.02
2018-10-12T03:57:04.593Z,98302.88
2018-10-12T03:57:36.219Z,98302.02
2018-10-12T03:58:07.823Z,98297.77
2018-10-12T03:58:39.421Z,98305.02
2018-10-12T03:59:11.022Z,98304.16
2018-10-12T03:59:42.621Z,98298.63
2018-10-12T04:00:14.226Z,98299.47
2018-10-12T04:00:45.835Z,98296.92
2018-10-12T04:01:17.429Z,98296.07
2018-10-12T04:01:49.019Z,98294.36
2018-10-12T04:02:20.626Z,98299.11
2018-10-12T04:02:52.300Z,98298.24
2018-10-12T04:03:23.845Z,98305.50
2018-10-12T04:03:55.440Z,98305.08
2018-10-12T04:04:27.051Z,98299.16
2018-10-12T04:04:58.644Z,98307.63
2018-10-12T04:05:30.249Z,98298.69
2018-10-12T04:06:01.858Z,98294.91
2018-10-12T04:06:33.480Z,98301.25
2018-10-12T04:07:05.087Z,98297.41
2018-10-12T04:07:36.693Z,98298.69
2018-10-12T04:08:08.280Z,98298.27
2018-10-12T04:08:39.877Z,98299.59
2018-10-12T04:09:11.486Z,98302.14
2018-10-12T04:09:43.080Z,98301.30
2018-10-12T04:10:14.669Z,98305.99
2018-10-12T04:10:46.278Z,98301.73
2018-10-12T04:11:18.005Z,98309.02
2018-10-12T04:11:49.590Z,98301.77
2018-10-12T04:12:21.197Z,98302.63
2018-10-12T04:12:52.827Z,98309.03
2018-10-12T04:13:24.444Z,98307.38
2018-10-12T04:13:56.058Z,98310.73
2018-10-12T04:14:27.691Z,98306.48
2018-10-12T04:14:59.306Z,98306.48
2018-10-12T04:15:30.900Z,98309.90
2018-10-12T04:16:02.496Z,98308.23
2018-10-12T04:16:34.158Z,98307.81
2018-10-12T04:17:05.753Z,98310.38
2018-10-12T04:17:37.353Z,98303.55
2018-10-12T04:18:08.944Z,98304.84
2018-10-12T04:18:40.546Z,98306.16
2018-10-12T04:19:12.129Z,98301.89
2018-10-12T04:19:43.739Z,98303.19
2018-10-12T04:20:15.337Z,98301.89
2018-10-12T04:20:46.943Z,98302.76
2018-10-12T04:21:18.544Z,98302.33
2018-10-12T04:21:50.187Z,98300.20
2018-10-12T04:22:21.778Z,98299.34
2018-10-12T04:22:53.386Z,98306.59
2018-10-12T04:23:24.990Z,98306.59
2018-10-12T04:23:56.599Z,98307.44
2018-10-12T04:24:28.179Z,98304.46
2018-10-12T04:24:59.761Z,98314.27
2018-10-12T04:25:31.370Z,98313.41
2018-10-12T04:26:02.965Z,98316.82
2018-10-12T04:26:34.562Z,98311.70
2018-10-12T04:27:06.198Z,98314.74
2018-10-12T04:27:37.801Z,98320.22
2018-10-12T04:28:09.418Z,98314.64
2018-10-12T04:28:41.017Z,98318.48
2018-10-12T04:29:12.612Z,98316.39
2018-10-12T04:29:44.219Z,98314.21
2018-10-12T04:30:15.826Z,98304.88
2018-10-12T04:30:47.424Z,98324.87
2018-10-12T04:31:19.020Z,98327.00
2018-10-12T04:31:50.654Z,98319.33
2018-10-12T04:32:22.262Z,98316.77
2018-10-12T04:32:53.864Z,98317.61
2018-10-12T04:33:25.447Z,98315.91
2018-10-12T04:33:57.049Z,98316.72
2018-10-12T04:34:28.664Z,98316.72
2018-10-12T04:35:00.265Z,98320.12
2018-10-12T04:35:31.858Z,98317.14
2018-10-12T04:36:03.462Z,98317.14
2018-10-12T04:36:35.069Z,98283.83
2018-10-12T04:37:06.703Z,98323.11
2018-10-12T04:37:38.342Z,98318.83
2018-10-12T04:38:09.934Z,98323.91
2018-10-12T04:38:41.548Z,98321.34
2018-10-12T04:39:13.153Z,98329.45
2018-10-12T04:39:44.748Z,98322.20
2018-10-12T04:40:16.360Z,98317.55
2018-10-12T04:40:47.970Z,98330.30
2018-10-12T04:41:19.556Z,98323.05
2018-10-12T04:41:51.180Z,98324.37
2018-10-12T04:42:22.768Z,98325.60
2018-10-12T04:42:54.360Z,98322.19
2018-10-12T04:43:25.956Z,98321.75
2018-10-12T04:43:57.563Z,98326.88
2018-10-12T04:44:29.171Z,98320.92
2018-10-12T04:45:00.770Z,98323.47
2018-10-12T04:45:32.364Z,98326.02
2018-10-12T04:46:03.960Z,98328.59
2018-10-12T04:46:35.552Z,98333.27
2018-10-12T04:47:07.193Z,98327.73
2018-10-12T04:47:38.801Z,98324.33
2018-10-12T04:48:10.396Z,98331.14
2018-10-12T04:48:41.999Z,98334.13
2018-10-12T04:49:13.610Z,98330.28
2018-10-12T04:49:45.186Z,98334.98
2018-10-12T04:50:16.784Z,98334.13
2018-10-12T04:50:48.396Z,98335.41
2018-10-12T04:51:19.988Z,98338.39
2018-10-12T04:51:51.610Z,98334.98
2018-10-12T04:52:23.205Z,98333.27
2018-10-12T04:52:54.802Z,98339.66
2018-10-12T04:53:26.419Z,98346.48
2018-10-12T04:53:58.013Z,98335.83
2018-10-12T04:54:29.617Z,98334.98
2018-10-12T04:55:01.217Z,98333.69
2018-10-12T04:55:32.827Z,98328.59
2018-10-12T04:56:04.424Z,98333.28
2018-10-12T04:56:36.003Z,98336.69
2018-10-12T04:57:07.625Z,98334.55
2018-10-12T04:57:39.231Z,98335.41
2018-10-12T04:58:10.829Z,98330.25
2018-10-12T04:58:42.521Z,98325.55
2018-10-12T04:59:14.127Z,98331.95
2018-10-12T04:59:45.731Z,98334.08
2018-10-12T05:00:17.339Z,98327.30
2018-10-12T05:00:48.972Z,98330.30
2018-10-12T05:01:20.574Z,98328.97
2018-10-12T05:01:52.230Z,98327.69
2018-10-12T05:02:23.840Z,98325.59
2018-10-12T05:02:55.442Z,98331.95
2018-10-12T05:03:27.612Z,98321.77
2018-10-12T05:03:59.223Z,98325.97
2018-10-12T05:04:30.802Z,98334.50
2018-10-12T05:05:02.397Z,98327.68
2018-10-12T05:05:34.000Z,98334.50
2018-10-12T05:06:05.592Z,98331.09
2018-10-12T05:06:37.198Z,98330.66
2018-10-12T05:07:08.816Z,98338.77
2018-10-12T05:07:40.406Z,98330.66
2018-10-12T05:08:12.023Z,98340.47
2018-10-12T05:08:43.628Z,98330.66
2018-10-12T05:09:15.250Z,98334.55
2018-10-12T05:09:46.852Z,98330.66
2018-10-12T05:10:18.455Z,98343.03
2018-10-12T05:10:50.053Z,98333.22
2018-10-12T05:11:21.645Z,98340.05
2018-10-12T05:11:53.244Z,98340.47
2018-10-12T05:12:24.870Z,98340.05
2018-10-12T05:12:56.455Z,98326.84
2018-10-12T05:13:28.056Z,98332.37
2018-10-12T05:13:59.648Z,98332.41
2018-10-12T05:14:31.245Z,98331.14
2018-10-12T05:15:02.844Z,98335.41
2018-10-12T05:15:34.444Z,98339.23
2018-10-12T05:16:06.056Z,98333.28
2018-10-12T05:16:37.662Z,98338.39
2018-10-12T05:17:09.288Z,98340.52
2018-10-12T05:17:40.877Z,98339.66
2018-10-12T05:18:12.458Z,98340.09
2018-10-12T05:18:44.054Z,98337.97
2018-10-12T05:19:15.674Z,98338.39
2018-10-12T05:19:47.269Z,98332.44
2018-10-12T05:20:18.860Z,98347.30
2018-10-12T05:20:50.463Z,98341.80
2018-10-12T05:21:22.068Z,98343.92
2018-10-12T05:21:53.696Z,98348.20
2018-10-12T05:22:25.283Z,98346.07
2018-10-12T05:22:56.876Z,98355.45
2018-10-12T05:23:28.478Z,98352.04
2018-10-12T05:24:00.077Z,98349.48
2018-10-12T05:24:31.671Z,98349.48
2018-10-12T05:25:03.264Z,98344.79
2018-10-12T05:25:34.860Z,98343.09
2018-10-12T05:26:06.474Z,98337.54
2018-10-12T05:26:38.084Z,98342.22
2018-10-12T05:27:09.718Z,98343.04
2018-10-12T05:27:41.310Z,98339.23
2018-10-12T05:28:12.909Z,98343.08
2018-10-12T05:28:44.519Z,98348.63
2018-10-12T05:29:16.127Z,98349.05
2018-10-12T05:29:47.735Z,98345.64
2018-10-12T05:30:19.372Z,98344.36
2018-10-12T05:30:50.965Z,98351.61
2018-10-12T05:31:22.559Z,98351.61
2018-10-12T05:31:54.148Z,98349.48
2018-10-12T05:32:25.769Z,98361.42
2018-10-12T05:32:57.364Z,98371.66
2018-10-12T05:33:28.971Z,98359.72
2018-10-12T05:34:00.551Z,98355.45
2018-10-12T05:34:32.141Z,98357.58
2018-10-12T05:35:03.732Z,98364.41
2018-10-12T05:35:35.338Z,98359.72
2018-10-12T05:36:06.954Z,98362.70
2018-10-12T05:36:38.537Z,98367.81
2018-10-12T05:37:10.300Z,98367.81
2018-10-12T05:37:41.900Z,98367.38
2018-10-12T05:38:13.510Z,98359.28
2018-10-12T05:38:45.108Z,98362.27
2018-10-12T05:39:16.718Z,98360.57
2018-10-12T05:39:48.313Z,98364.03
2018-10-12T05:40:19.905Z,98372.08
2018-10-12T05:40:51.483Z,98368.25
2018-10-12T05:41:23.085Z,98369.95
2018-10-12T05:41:54.676Z,98369.95
2018-10-12T05:42:26.310Z,98371.66
2018-10-12T05:42:58.006Z,98378.91
2018-10-12T05:43:29.744Z,98368.67
2018-10-12T05:44:01.158Z,98378.09
2018-10-12T05:44:32.767Z,98388.33
2018-10-12T05:45:04.375Z,98381.93
2018-10-12T05:45:35.973Z,98391.31
2018-10-12T05:46:07.583Z,98393.87
2018-10-12T05:46:39.198Z,98398.14
2018-10-12T05:47:10.794Z,98390.91
2018-10-12T05:47:42.421Z,98400.70
2018-10-12T05:48:14.008Z,98393.87
2018-10-12T05:48:45.642Z,98396.06
2018-10-12T05:49:17.238Z,98399.86
2018-10-12T05:49:48.851Z,98401.14
2018-10-12T05:50:20.435Z,98409.27
2018-10-12T05:50:52.029Z,98403.31
2018-10-12T05:51:23.621Z,98399.91
2018-10-12T05:51:55.216Z,98402.08
2018-10-12T05:52:26.827Z,98406.30
2018-10-12T05:52:58.431Z,98405.88
2018-10-12T05:53:30.025Z,98408.01
2018-10-12T05:54:01.632Z,98407.16
2018-10-12T05:54:33.262Z,98409.71
2018-10-12T05:55:04.871Z,98413.56
2018-10-12T05:55:36.524Z,98415.27
2018-10-12T05:56:08.088Z,98415.27
2018-10-12T05:56:39.694Z,98418.28
2018-10-12T05:57:11.289Z,98416.16
2018-10-12T05:57:42.914Z,98415.69
2018-10-12T05:58:14.505Z,98416.16
2018-10-12T05:58:46.087Z,98418.28
2018-10-12T05:59:17.681Z,98414.45
2018-10-12T05:59:49.294Z,98414.02
2018-10-12T06:00:20.896Z,98413.17
2018-10-12T06:00:52.492Z,98418.72
2018-10-12T06:01:24.177Z,98412.75
2018-10-12T06:01:55.708Z,98414.88
2018-10-12T06:02:27.338Z,98420.00
2018-10-12T06:02:58.932Z,98422.13
2018-10-12T06:03:30.525Z,98334.41
2018-10-12T06:04:02.136Z,98414.41
2018-10-12T06:04:33.733Z,98423.83
2018-10-12T06:05:05.328Z,98413.98
2018-10-12T06:05:36.924Z,98416.97
2018-10-12T06:06:08.532Z,98419.53
2018-10-12T06:06:40.132Z,98415.27
2018-10-12T06:07:11.715Z,98413.17
2018-10-12T06:07:43.337Z,98414.41
2018-10-12T06:08:14.949Z,98417.43
2018-10-12T06:08:46.530Z,98416.16
2018-10-12T06:09:18.166Z,98419.53
2018-10-12T06:09:49.881Z,98411.00
2018-10-12T06:10:21.385Z,98412.31
2018-10-12T06:10:52.966Z,98416.53
2018-10-12T06:11:24.593Z,98421.23
2018-10-12T06:11:56.194Z,98420.80
2018-10-12T06:12:27.806Z,98417.39